sensor_id;sensor_type;location;lat;lon;timestamp;P1;durP1;ratioP1;P2;durP2;ratioP2
16626;SDS011;8427;52.204;7.202;2023-11-19T00:00:32;19.52;;;9.43;;
16626;SDS011;8427;52.204;7.202;2023-11-19T00:03:00;22.75;;;10.32;;
16626;SDS011;8427;52.204;7.202;2023-11-19T00:05:28;20.38;;;9.60;;
16626;SDS011;8427;52.204;7.202;2023-11-19T00:07:56;25.67;;;10.20;;
16626;SDS011;8427;52.204;7.202;2023-11-19T00:10:24;21.80;;;10.32;;
16626;SDS011;8427;52.204;7.202;2023-11-19T00:12:53;22.27;;;10.02;;
16626;SDS011;8427;52.204;7.202;2023-11-19T00:15:23;23.20;;;10.65;;
16626;SDS011;8427;52.204;7.202;2023-11-19T00:17:51;24.63;;;10.35;;
16626;SDS011;8427;52.204;7.202;2023-11-19T00:20:20;23.88;;;10.43;;
16626;SDS011;8427;52.204;7.202;2023-11-19T00:22:49;22.67;;;10.13;;
16626;SDS011;8427;52.204;7.202;2023-11-19T00:25:19;23.42;;;10.75;;
16626;SDS011;8427;52.204;7.202;2023-11-19T00:27:48;20.42;;;9.55;;
16626;SDS011;8427;52.204;7.202;2023-11-19T00:30:18;23.30;;;10.13;;
16626;SDS011;8427;52.204;7.202;2023-11-19T00:32:46;25.05;;;10.38;;
16626;SDS011;8427;52.204;7.202;2023-11-19T00:35:14;25.00;;;10.45;;
16626;SDS011;8427;52.204;7.202;2023-11-19T00:37:42;20.73;;;10.23;;
16626;SDS011;8427;52.204;7.202;2023-11-19T00:40:12;23.10;;;10.43;;
16626;SDS011;8427;52.204;7.202;2023-11-19T00:42:42;22.60;;;10.63;;
16626;SDS011;8427;52.204;7.202;2023-11-19T00:45:10;23.88;;;10.93;;
16626;SDS011;8427;52.204;7.202;2023-11-19T00:47:40;29.08;;;11.38;;
16626;SDS011;8427;52.204;7.202;2023-11-19T00:50:09;26.77;;;11.48;;
16626;SDS011;8427;52.204;7.202;2023-11-19T00:52:38;26.30;;;11.60;;
16626;SDS011;8427;52.204;7.202;2023-11-19T00:55:06;29.30;;;11.50;;
16626;SDS011;8427;52.204;7.202;2023-11-19T00:57:35;31.60;;;11.90;;
16626;SDS011;8427;52.204;7.202;2023-11-19T01:00:03;28.30;;;11.73;;
16626;SDS011;8427;52.204;7.202;2023-11-19T01:02:42;29.23;;;11.90;;
16626;SDS011;8427;52.204;7.202;2023-11-19T01:07:40;28.92;;;11.30;;
16626;SDS011;8427;52.204;7.202;2023-11-19T01:10:08;30.88;;;12.23;;
16626;SDS011;8427;52.204;7.202;2023-11-19T01:12:36;32.77;;;13.00;;
16626;SDS011;8427;52.204;7.202;2023-11-19T01:15:05;34.67;;;12.68;;
16626;SDS011;8427;52.204;7.202;2023-11-19T01:17:33;32.80;;;13.15;;
16626;SDS011;8427;52.204;7.202;2023-11-19T01:20:03;30.98;;;12.98;;
16626;SDS011;8427;52.204;7.202;2023-11-19T01:22:32;33.90;;;12.60;;
16626;SDS011;8427;52.204;7.202;2023-11-19T01:25:01;37.92;;;14.05;;
16626;SDS011;8427;52.204;7.202;2023-11-19T01:27:31;33.10;;;14.13;;
16626;SDS011;8427;52.204;7.202;2023-11-19T01:30:00;33.13;;;12.88;;
16626;SDS011;8427;52.204;7.202;2023-11-19T01:32:29;35.55;;;13.57;;
16626;SDS011;8427;52.204;7.202;2023-11-19T01:34:57;36.63;;;14.50;;
16626;SDS011;8427;52.204;7.202;2023-11-19T01:37:27;39.08;;;14.65;;
16626;SDS011;8427;52.204;7.202;2023-11-19T01:39:55;37.22;;;14.55;;
16626;SDS011;8427;52.204;7.202;2023-11-19T01:42:24;37.67;;;13.75;;
16626;SDS011;8427;52.204;7.202;2023-11-19T01:44:57;36.10;;;14.52;;
16626;SDS011;8427;52.204;7.202;2023-11-19T01:47:26;40.33;;;14.63;;
16626;SDS011;8427;52.204;7.202;2023-11-19T01:49:55;36.03;;;14.30;;
16626;SDS011;8427;52.204;7.202;2023-11-19T01:52:24;39.90;;;15.18;;
16626;SDS011;8427;52.204;7.202;2023-11-19T01:54:54;40.72;;;15.23;;
16626;SDS011;8427;52.204;7.202;2023-11-19T01:57:22;39.45;;;14.07;;
16626;SDS011;8427;52.204;7.202;2023-11-19T01:59:51;35.83;;;14.52;;
16626;SDS011;8427;52.204;7.202;2023-11-19T02:02:20;36.03;;;14.77;;
16626;SDS011;8427;52.204;7.202;2023-11-19T02:04:49;39.10;;;15.30;;
16626;SDS011;8427;52.204;7.202;2023-11-19T02:07:18;34.25;;;14.52;;
16626;SDS011;8427;52.204;7.202;2023-11-19T02:09:48;38.77;;;15.57;;
16626;SDS011;8427;52.204;7.202;2023-11-19T02:12:15;36.65;;;14.75;;
16626;SDS011;8427;52.204;7.202;2023-11-19T02:14:44;38.37;;;14.37;;
16626;SDS011;8427;52.204;7.202;2023-11-19T02:17:24;32.72;;;14.13;;
16626;SDS011;8427;52.204;7.202;2023-11-19T02:19:53;35.90;;;14.13;;
16626;SDS011;8427;52.204;7.202;2023-11-19T02:22:21;38.25;;;14.48;;
16626;SDS011;8427;52.204;7.202;2023-11-19T02:24:51;33.53;;;14.53;;
16626;SDS011;8427;52.204;7.202;2023-11-19T02:27:28;34.97;;;14.52;;
16626;SDS011;8427;52.204;7.202;2023-11-19T02:30:06;36.05;;;13.23;;
16626;SDS011;8427;52.204;7.202;2023-11-19T02:32:35;41.70;;;14.00;;
16626;SDS011;8427;52.204;7.202;2023-11-19T02:35:05;32.72;;;13.07;;
16626;SDS011;8427;52.204;7.202;2023-11-19T02:37:35;38.22;;;13.07;;
16626;SDS011;8427;52.204;7.202;2023-11-19T02:40:03;36.85;;;12.75;;
16626;SDS011;8427;52.204;7.202;2023-11-19T02:42:34;32.90;;;11.90;;
16626;SDS011;8427;52.204;7.202;2023-11-19T02:45:04;30.92;;;12.35;;
16626;SDS011;8427;52.204;7.202;2023-11-19T02:47:33;37.55;;;12.20;;
16626;SDS011;8427;52.204;7.202;2023-11-19T02:50:02;29.57;;;12.20;;
16626;SDS011;8427;52.204;7.202;2023-11-19T02:52:30;31.90;;;11.98;;
16626;SDS011;8427;52.204;7.202;2023-11-19T02:55:01;34.60;;;11.48;;
16626;SDS011;8427;52.204;7.202;2023-11-19T02:57:30;32.88;;;11.77;;
16626;SDS011;8427;52.204;7.202;2023-11-19T03:00:00;33.72;;;11.48;;
16626;SDS011;8427;52.204;7.202;2023-11-19T03:02:32;31.83;;;11.27;;
16626;SDS011;8427;52.204;7.202;2023-11-19T03:05:10;26.40;;;10.95;;
16626;SDS011;8427;52.204;7.202;2023-11-19T03:07:38;31.45;;;11.43;;
16626;SDS011;8427;52.204;7.202;2023-11-19T03:10:06;35.08;;;11.82;;
16626;SDS011;8427;52.204;7.202;2023-11-19T03:12:35;32.40;;;11.05;;
16626;SDS011;8427;52.204;7.202;2023-11-19T03:15:03;33.13;;;11.10;;
16626;SDS011;8427;52.204;7.202;2023-11-19T03:17:33;33.75;;;11.02;;
16626;SDS011;8427;52.204;7.202;2023-11-19T03:20:01;31.88;;;10.45;;
16626;SDS011;8427;52.204;7.202;2023-11-19T03:22:28;30.35;;;10.30;;
16626;SDS011;8427;52.204;7.202;2023-11-19T03:24:56;36.55;;;11.70;;
16626;SDS011;8427;52.204;7.202;2023-11-19T03:27:24;28.08;;;10.57;;
16626;SDS011;8427;52.204;7.202;2023-11-19T03:29:52;29.50;;;11.15;;
16626;SDS011;8427;52.204;7.202;2023-11-19T03:32:20;29.75;;;10.77;;
16626;SDS011;8427;52.204;7.202;2023-11-19T03:34:49;32.70;;;11.23;;
16626;SDS011;8427;52.204;7.202;2023-11-19T03:37:17;37.42;;;10.30;;
16626;SDS011;8427;52.204;7.202;2023-11-19T03:39:45;27.60;;;9.73;;
16626;SDS011;8427;52.204;7.202;2023-11-19T03:42:13;24.52;;;9.77;;
16626;SDS011;8427;52.204;7.202;2023-11-19T03:44:41;29.27;;;9.18;;
16626;SDS011;8427;52.204;7.202;2023-11-19T03:47:09;26.88;;;9.38;;
16626;SDS011;8427;52.204;7.202;2023-11-19T03:49:37;27.77;;;9.05;;
16626;SDS011;8427;52.204;7.202;2023-11-19T03:52:06;31.42;;;9.23;;
16626;SDS011;8427;52.204;7.202;2023-11-19T03:54:45;28.60;;;9.00;;
16626;SDS011;8427;52.204;7.202;2023-11-19T03:57:13;31.70;;;8.48;;
16626;SDS011;8427;52.204;7.202;2023-11-19T03:59:41;34.42;;;7.65;;
16626;SDS011;8427;52.204;7.202;2023-11-19T04:02:10;34.20;;;7.30;;
16626;SDS011;8427;52.204;7.202;2023-11-19T04:04:38;30.13;;;7.00;;
16626;SDS011;8427;52.204;7.202;2023-11-19T04:07:07;28.20;;;6.93;;
16626;SDS011;8427;52.204;7.202;2023-11-19T04:09:35;26.95;;;6.38;;
16626;SDS011;8427;52.204;7.202;2023-11-19T04:12:03;30.33;;;6.43;;
16626;SDS011;8427;52.204;7.202;2023-11-19T04:14:32;24.40;;;5.88;;
16626;SDS011;8427;52.204;7.202;2023-11-19T04:17:00;30.52;;;6.13;;
16626;SDS011;8427;52.204;7.202;2023-11-19T04:19:28;31.42;;;6.05;;
16626;SDS011;8427;52.204;7.202;2023-11-19T04:21:59;28.67;;;5.25;;
16626;SDS011;8427;52.204;7.202;2023-11-19T04:24:30;30.20;;;5.18;;
16626;SDS011;8427;52.204;7.202;2023-11-19T04:26:57;31.52;;;5.05;;
16626;SDS011;8427;52.204;7.202;2023-11-19T04:29:25;31.92;;;5.10;;
16626;SDS011;8427;52.204;7.202;2023-11-19T04:31:53;24.75;;;5.10;;
16626;SDS011;8427;52.204;7.202;2023-11-19T04:34:21;31.00;;;5.25;;
16626;SDS011;8427;52.204;7.202;2023-11-19T04:36:49;27.63;;;5.15;;
16626;SDS011;8427;52.204;7.202;2023-11-19T04:39:17;35.20;;;5.05;;
16626;SDS011;8427;52.204;7.202;2023-11-19T04:41:47;26.17;;;5.30;;
16626;SDS011;8427;52.204;7.202;2023-11-19T04:44:15;35.95;;;5.35;;
16626;SDS011;8427;52.204;7.202;2023-11-19T04:46:43;27.52;;;5.10;;
16626;SDS011;8427;52.204;7.202;2023-11-19T04:49:12;36.40;;;4.82;;
16626;SDS011;8427;52.204;7.202;2023-11-19T04:51:41;36.90;;;4.97;;
16626;SDS011;8427;52.204;7.202;2023-11-19T04:54:09;28.80;;;4.70;;
16626;SDS011;8427;52.204;7.202;2023-11-19T04:56:37;31.42;;;4.55;;
16626;SDS011;8427;52.204;7.202;2023-11-19T04:59:07;32.60;;;4.25;;
16626;SDS011;8427;52.204;7.202;2023-11-19T05:01:35;33.25;;;4.95;;
16626;SDS011;8427;52.204;7.202;2023-11-19T05:04:03;28.70;;;4.43;;
16626;SDS011;8427;52.204;7.202;2023-11-19T05:06:31;36.35;;;4.40;;
16626;SDS011;8427;52.204;7.202;2023-11-19T05:08:59;34.13;;;4.70;;
16626;SDS011;8427;52.204;7.202;2023-11-19T05:11:32;34.90;;;4.78;;
16626;SDS011;8427;52.204;7.202;2023-11-19T05:14:02;37.40;;;4.07;;
16626;SDS011;8427;52.204;7.202;2023-11-19T05:16:32;33.13;;;4.70;;
16626;SDS011;8427;52.204;7.202;2023-11-19T05:19:01;31.42;;;4.25;;
16626;SDS011;8427;52.204;7.202;2023-11-19T05:21:30;32.08;;;4.10;;
16626;SDS011;8427;52.204;7.202;2023-11-19T05:23:58;34.03;;;4.35;;
16626;SDS011;8427;52.204;7.202;2023-11-19T05:26:26;41.88;;;4.68;;
16626;SDS011;8427;52.204;7.202;2023-11-19T05:28:53;34.30;;;4.63;;
16626;SDS011;8427;52.204;7.202;2023-11-19T05:31:21;42.65;;;5.03;;
16626;SDS011;8427;52.204;7.202;2023-11-19T05:33:51;32.53;;;4.47;;
16626;SDS011;8427;52.204;7.202;2023-11-19T05:38:47;37.70;;;4.45;;
16626;SDS011;8427;52.204;7.202;2023-11-19T05:41:15;39.90;;;4.30;;
16626;SDS011;8427;52.204;7.202;2023-11-19T05:43:42;35.75;;;4.32;;
16626;SDS011;8427;52.204;7.202;2023-11-19T05:46:10;39.03;;;4.05;;
16626;SDS011;8427;52.204;7.202;2023-11-19T05:48:42;42.35;;;4.35;;
16626;SDS011;8427;52.204;7.202;2023-11-19T05:56:08;38.30;;;4.13;;
16626;SDS011;8427;52.204;7.202;2023-11-19T05:58:36;37.58;;;4.32;;
16626;SDS011;8427;52.204;7.202;2023-11-19T06:01:06;35.28;;;3.78;;
16626;SDS011;8427;52.204;7.202;2023-11-19T06:03:35;32.00;;;3.83;;
16626;SDS011;8427;52.204;7.202;2023-11-19T06:06:03;32.20;;;3.57;;
16626;SDS011;8427;52.204;7.202;2023-11-19T06:08:33;34.30;;;3.80;;
16626;SDS011;8427;52.204;7.202;2023-11-19T06:13:29;37.72;;;3.97;;
16626;SDS011;8427;52.204;7.202;2023-11-19T06:15:58;32.22;;;3.28;;
16626;SDS011;8427;52.204;7.202;2023-11-19T06:18:25;31.25;;;3.65;;
16626;SDS011;8427;52.204;7.202;2023-11-19T06:20:53;34.17;;;3.70;;
16626;SDS011;8427;52.204;7.202;2023-11-19T06:23:21;28.35;;;3.58;;
16626;SDS011;8427;52.204;7.202;2023-11-19T06:25:51;35.15;;;3.65;;
16626;SDS011;8427;52.204;7.202;2023-11-19T06:28:18;34.08;;;3.30;;
16626;SDS011;8427;52.204;7.202;2023-11-19T06:30:46;30.10;;;3.53;;
16626;SDS011;8427;52.204;7.202;2023-11-19T06:33:15;36.60;;;4.10;;
16626;SDS011;8427;52.204;7.202;2023-11-19T06:35:43;32.40;;;3.47;;
16626;SDS011;8427;52.204;7.202;2023-11-19T06:38:11;30.25;;;3.17;;
16626;SDS011;8427;52.204;7.202;2023-11-19T06:40:39;32.33;;;3.30;;
16626;SDS011;8427;52.204;7.202;2023-11-19T06:43:08;27.10;;;3.17;;
16626;SDS011;8427;52.204;7.202;2023-11-19T06:45:36;27.88;;;3.58;;
16626;SDS011;8427;52.204;7.202;2023-11-19T06:48:04;41.10;;;3.88;;
16626;SDS011;8427;52.204;7.202;2023-11-19T06:50:33;46.05;;;3.60;;
16626;SDS011;8427;52.204;7.202;2023-11-19T06:53:01;35.35;;;3.80;;
16626;SDS011;8427;52.204;7.202;2023-11-19T06:58:06;27.77;;;3.30;;
16626;SDS011;8427;52.204;7.202;2023-11-19T07:03:03;31.08;;;3.30;;
16626;SDS011;8427;52.204;7.202;2023-11-19T07:05:35;33.47;;;3.65;;
16626;SDS011;8427;52.204;7.202;2023-11-19T07:08:05;30.90;;;3.65;;
16626;SDS011;8427;52.204;7.202;2023-11-19T07:10:34;30.08;;;3.40;;
16626;SDS011;8427;52.204;7.202;2023-11-19T07:13:02;27.88;;;3.15;;
16626;SDS011;8427;52.204;7.202;2023-11-19T07:18:01;32.60;;;3.15;;
16626;SDS011;8427;52.204;7.202;2023-11-19T07:20:29;39.00;;;3.50;;
16626;SDS011;8427;52.204;7.202;2023-11-19T07:22:59;39.35;;;3.80;;
16626;SDS011;8427;52.204;7.202;2023-11-19T07:25:27;27.95;;;3.17;;
16626;SDS011;8427;52.204;7.202;2023-11-19T07:27:55;31.00;;;3.25;;
16626;SDS011;8427;52.204;7.202;2023-11-19T07:30:23;33.70;;;3.50;;
16626;SDS011;8427;52.204;7.202;2023-11-19T07:32:52;31.90;;;3.47;;
16626;SDS011;8427;52.204;7.202;2023-11-19T07:35:20;39.35;;;3.80;;
16626;SDS011;8427;52.204;7.202;2023-11-19T07:37:47;32.25;;;3.13;;
16626;SDS011;8427;52.204;7.202;2023-11-19T07:40:16;31.33;;;2.97;;
16626;SDS011;8427;52.204;7.202;2023-11-19T07:42:45;30.77;;;3.28;;
16626;SDS011;8427;52.204;7.202;2023-11-19T07:45:13;32.53;;;3.40;;
16626;SDS011;8427;52.204;7.202;2023-11-19T07:47:40;33.42;;;3.30;;
16626;SDS011;8427;52.204;7.202;2023-11-19T07:50:10;29.48;;;3.33;;
16626;SDS011;8427;52.204;7.202;2023-11-19T07:52:40;36.35;;;3.15;;
16626;SDS011;8427;52.204;7.202;2023-11-19T07:55:08;37.97;;;3.85;;
16626;SDS011;8427;52.204;7.202;2023-11-19T07:57:36;36.72;;;4.00;;
16626;SDS011;8427;52.204;7.202;2023-11-19T08:00:04;29.40;;;3.60;;
16626;SDS011;8427;52.204;7.202;2023-11-19T08:02:34;34.90;;;3.65;;
16626;SDS011;8427;52.204;7.202;2023-11-19T08:05:03;33.30;;;4.57;;
16626;SDS011;8427;52.204;7.202;2023-11-19T08:07:33;36.35;;;3.78;;
16626;SDS011;8427;52.204;7.202;2023-11-19T08:10:00;35.03;;;3.92;;
16626;SDS011;8427;52.204;7.202;2023-11-19T08:12:29;30.83;;;3.60;;
16626;SDS011;8427;52.204;7.202;2023-11-19T08:14:57;31.65;;;3.33;;
16626;SDS011;8427;52.204;7.202;2023-11-19T08:17:25;43.10;;;4.50;;
16626;SDS011;8427;52.204;7.202;2023-11-19T08:19:53;34.30;;;3.88;;
16626;SDS011;8427;52.204;7.202;2023-11-19T08:22:21;34.22;;;3.55;;
16626;SDS011;8427;52.204;7.202;2023-11-19T08:24:50;35.55;;;3.58;;
16626;SDS011;8427;52.204;7.202;2023-11-19T08:27:19;41.83;;;4.00;;
16626;SDS011;8427;52.204;7.202;2023-11-19T08:29:53;39.28;;;3.75;;
16626;SDS011;8427;52.204;7.202;2023-11-19T08:32:23;40.85;;;4.50;;
16626;SDS011;8427;52.204;7.202;2023-11-19T08:34:50;40.92;;;9.93;;
16626;SDS011;8427;52.204;7.202;2023-11-19T08:37:18;34.47;;;4.38;;
16626;SDS011;8427;52.204;7.202;2023-11-19T08:39:47;27.60;;;4.40;;
16626;SDS011;8427;52.204;7.202;2023-11-19T08:42:16;34.00;;;5.32;;
16626;SDS011;8427;52.204;7.202;2023-11-19T08:47:16;32.40;;;3.53;;
16626;SDS011;8427;52.204;7.202;2023-11-19T08:49:45;32.17;;;3.45;;
16626;SDS011;8427;52.204;7.202;2023-11-19T08:52:29;40.90;;;5.00;;
16626;SDS011;8427;52.204;7.202;2023-11-19T08:55:00;29.77;;;3.47;;
16626;SDS011;8427;52.204;7.202;2023-11-19T08:57:30;27.48;;;3.33;;
16626;SDS011;8427;52.204;7.202;2023-11-19T08:59:57;36.65;;;4.15;;
16626;SDS011;8427;52.204;7.202;2023-11-19T09:02:25;36.22;;;4.07;;
16626;SDS011;8427;52.204;7.202;2023-11-19T09:04:54;38.63;;;4.30;;
16626;SDS011;8427;52.204;7.202;2023-11-19T09:07:22;35.92;;;7.05;;
16626;SDS011;8427;52.204;7.202;2023-11-19T09:09:50;36.72;;;4.70;;
16626;SDS011;8427;52.204;7.202;2023-11-19T09:12:18;41.60;;;4.43;;
16626;SDS011;8427;52.204;7.202;2023-11-19T09:14:47;30.42;;;3.45;;
16626;SDS011;8427;52.204;7.202;2023-11-19T09:17:15;29.08;;;3.42;;
16626;SDS011;8427;52.204;7.202;2023-11-19T09:19:44;38.88;;;4.32;;
16626;SDS011;8427;52.204;7.202;2023-11-19T09:22:12;36.30;;;4.15;;
16626;SDS011;8427;52.204;7.202;2023-11-19T09:24:40;27.63;;;3.75;;
16626;SDS011;8427;52.204;7.202;2023-11-19T09:27:10;39.00;;;4.05;;
16626;SDS011;8427;52.204;7.202;2023-11-19T09:29:38;32.33;;;4.10;;
16626;SDS011;8427;52.204;7.202;2023-11-19T09:32:08;27.35;;;3.25;;
16626;SDS011;8427;52.204;7.202;2023-11-19T09:34:35;34.33;;;3.78;;
16626;SDS011;8427;52.204;7.202;2023-11-19T09:37:03;39.83;;;3.65;;
16626;SDS011;8427;52.204;7.202;2023-11-19T09:39:47;28.10;;;3.63;;
16626;SDS011;8427;52.204;7.202;2023-11-19T09:42:15;33.35;;;4.07;;
16626;SDS011;8427;52.204;7.202;2023-11-19T09:44:44;38.08;;;3.67;;
16626;SDS011;8427;52.204;7.202;2023-11-19T09:49:44;31.83;;;3.20;;
16626;SDS011;8427;52.204;7.202;2023-11-19T09:52:16;31.80;;;3.38;;
16626;SDS011;8427;52.204;7.202;2023-11-19T09:54:44;35.45;;;3.60;;
16626;SDS011;8427;52.204;7.202;2023-11-19T09:57:12;44.22;;;6.35;;
16626;SDS011;8427;52.204;7.202;2023-11-19T09:59:44;33.15;;;3.50;;
16626;SDS011;8427;52.204;7.202;2023-11-19T10:02:14;30.60;;;3.42;;
16626;SDS011;8427;52.204;7.202;2023-11-19T10:04:43;32.10;;;4.00;;
16626;SDS011;8427;52.204;7.202;2023-11-19T10:07:13;31.05;;;3.50;;
16626;SDS011;8427;52.204;7.202;2023-11-19T10:09:41;33.55;;;4.35;;
16626;SDS011;8427;52.204;7.202;2023-11-19T10:12:09;31.10;;;4.22;;
16626;SDS011;8427;52.204;7.202;2023-11-19T10:14:38;34.28;;;3.65;;
16626;SDS011;8427;52.204;7.202;2023-11-19T10:17:10;23.30;;;3.70;;
16626;SDS011;8427;52.204;7.202;2023-11-19T10:19:41;36.83;;;4.30;;
16626;SDS011;8427;52.204;7.202;2023-11-19T10:22:09;28.48;;;3.97;;
16626;SDS011;8427;52.204;7.202;2023-11-19T10:24:39;33.90;;;4.20;;
16626;SDS011;8427;52.204;7.202;2023-11-19T10:27:14;62.85;;;15.68;;
16626;SDS011;8427;52.204;7.202;2023-11-19T10:29:44;42.67;;;6.70;;
16626;SDS011;8427;52.204;7.202;2023-11-19T10:32:14;35.67;;;3.70;;
16626;SDS011;8427;52.204;7.202;2023-11-19T10:34:56;27.33;;;3.45;;
16626;SDS011;8427;52.204;7.202;2023-11-19T10:37:33;33.72;;;3.95;;
16626;SDS011;8427;52.204;7.202;2023-11-19T10:40:04;30.35;;;4.13;;
16626;SDS011;8427;52.204;7.202;2023-11-19T10:42:36;28.15;;;4.07;;
16626;SDS011;8427;52.204;7.202;2023-11-19T10:45:12;28.40;;;3.75;;
16626;SDS011;8427;52.204;7.202;2023-11-19T10:47:51;33.97;;;3.70;;
16626;SDS011;8427;52.204;7.202;2023-11-19T10:50:23;29.55;;;3.55;;
16626;SDS011;8427;52.204;7.202;2023-11-19T10:55:21;31.15;;;3.53;;
16626;SDS011;8427;52.204;7.202;2023-11-19T10:57:55;33.58;;;3.83;;
16626;SDS011;8427;52.204;7.202;2023-11-19T11:00:28;32.45;;;3.78;;
16626;SDS011;8427;52.204;7.202;2023-11-19T11:03:00;30.50;;;3.42;;
16626;SDS011;8427;52.204;7.202;2023-11-19T11:05:30;30.65;;;3.50;;
16626;SDS011;8427;52.204;7.202;2023-11-19T11:08:00;33.65;;;3.28;;
16626;SDS011;8427;52.204;7.202;2023-11-19T11:13:03;32.65;;;4.10;;
16626;SDS011;8427;52.204;7.202;2023-11-19T11:15:32;39.10;;;6.22;;
16626;SDS011;8427;52.204;7.202;2023-11-19T11:18:01;41.78;;;8.75;;
16626;SDS011;8427;52.204;7.202;2023-11-19T11:20:32;38.75;;;9.13;;
16626;SDS011;8427;52.204;7.202;2023-11-19T11:23:11;38.47;;;7.95;;
16626;SDS011;8427;52.204;7.202;2023-11-19T11:26:18;29.73;;;5.65;;
16626;SDS011;8427;52.204;7.202;2023-11-19T11:29:09;27.67;;;3.70;;
16626;SDS011;8427;52.204;7.202;2023-11-19T11:31:44;34.53;;;4.03;;
16626;SDS011;8427;52.204;7.202;2023-11-19T11:34:35;32.15;;;4.97;;
16626;SDS011;8427;52.204;7.202;2023-11-19T11:37:25;30.85;;;4.40;;
16626;SDS011;8427;52.204;7.202;2023-11-19T11:39:59;29.33;;;3.33;;
16626;SDS011;8427;52.204;7.202;2023-11-19T11:42:32;32.67;;;3.53;;
16626;SDS011;8427;52.204;7.202;2023-11-19T11:45:04;29.65;;;3.92;;
16626;SDS011;8427;52.204;7.202;2023-11-19T11:50:51;28.27;;;3.90;;
16626;SDS011;8427;52.204;7.202;2023-11-19T11:53:36;34.25;;;4.53;;
16626;SDS011;8427;52.204;7.202;2023-11-19T11:56:06;32.58;;;5.88;;
16626;SDS011;8427;52.204;7.202;2023-11-19T11:58:38;30.35;;;5.45;;
16626;SDS011;8427;52.204;7.202;2023-11-19T12:01:14;37.03;;;5.90;;
16626;SDS011;8427;52.204;7.202;2023-11-19T12:03:48;29.40;;;4.55;;
16626;SDS011;8427;52.204;7.202;2023-11-19T12:06:20;27.55;;;3.50;;
16626;SDS011;8427;52.204;7.202;2023-11-19T12:08:52;27.88;;;3.60;;
16626;SDS011;8427;52.204;7.202;2023-11-19T12:11:21;28.02;;;3.83;;
16626;SDS011;8427;52.204;7.202;2023-11-19T12:13:54;29.05;;;3.63;;
16626;SDS011;8427;52.204;7.202;2023-11-19T12:16:25;30.10;;;4.63;;
16626;SDS011;8427;52.204;7.202;2023-11-19T12:18:55;26.35;;;3.40;;
16626;SDS011;8427;52.204;7.202;2023-11-19T12:21:27;24.02;;;3.80;;
16626;SDS011;8427;52.204;7.202;2023-11-19T12:23:59;31.80;;;5.43;;
16626;SDS011;8427;52.204;7.202;2023-11-19T12:26:34;25.17;;;4.60;;
16626;SDS011;8427;52.204;7.202;2023-11-19T12:29:04;30.60;;;4.45;;
16626;SDS011;8427;52.204;7.202;2023-11-19T12:31:36;21.85;;;3.78;;
16626;SDS011;8427;52.204;7.202;2023-11-19T12:34:05;32.80;;;4.22;;
16626;SDS011;8427;52.204;7.202;2023-11-19T12:36:40;29.42;;;4.32;;
16626;SDS011;8427;52.204;7.202;2023-11-19T12:39:22;30.20;;;4.43;;
16626;SDS011;8427;52.204;7.202;2023-11-19T12:41:51;26.48;;;3.55;;
16626;SDS011;8427;52.204;7.202;2023-11-19T12:44:25;25.35;;;3.08;;
16626;SDS011;8427;52.204;7.202;2023-11-19T12:47:00;29.73;;;3.80;;
16626;SDS011;8427;52.204;7.202;2023-11-19T12:49:29;29.10;;;4.10;;
16626;SDS011;8427;52.204;7.202;2023-11-19T12:51:57;31.90;;;3.83;;
16626;SDS011;8427;52.204;7.202;2023-11-19T12:54:36;32.72;;;4.70;;
16626;SDS011;8427;52.204;7.202;2023-11-19T12:57:07;30.75;;;4.43;;
16626;SDS011;8427;52.204;7.202;2023-11-19T12:59:35;29.13;;;4.30;;
16626;SDS011;8427;52.204;7.202;2023-11-19T13:02:03;22.75;;;3.88;;
16626;SDS011;8427;52.204;7.202;2023-11-19T13:04:33;23.65;;;3.50;;
16626;SDS011;8427;52.204;7.202;2023-11-19T13:07:01;22.67;;;3.57;;
16626;SDS011;8427;52.204;7.202;2023-11-19T13:09:31;24.88;;;3.90;;
16626;SDS011;8427;52.204;7.202;2023-11-19T13:12:11;31.58;;;2.90;;
16626;SDS011;8427;52.204;7.202;2023-11-19T13:14:40;26.33;;;3.70;;
16626;SDS011;8427;52.204;7.202;2023-11-19T13:17:12;23.58;;;3.10;;
16626;SDS011;8427;52.204;7.202;2023-11-19T13:19:41;25.67;;;3.22;;
16626;SDS011;8427;52.204;7.202;2023-11-19T13:22:08;28.40;;;3.40;;
16626;SDS011;8427;52.204;7.202;2023-11-19T13:24:37;23.88;;;3.10;;
16626;SDS011;8427;52.204;7.202;2023-11-19T13:27:07;28.63;;;3.50;;
16626;SDS011;8427;52.204;7.202;2023-11-19T13:29:36;20.23;;;3.55;;
16626;SDS011;8427;52.204;7.202;2023-11-19T13:32:04;30.95;;;3.90;;
16626;SDS011;8427;52.204;7.202;2023-11-19T13:34:32;28.30;;;4.05;;
16626;SDS011;8427;52.204;7.202;2023-11-19T13:37:00;26.98;;;4.85;;
16626;SDS011;8427;52.204;7.202;2023-11-19T13:39:29;22.17;;;4.03;;
16626;SDS011;8427;52.204;7.202;2023-11-19T13:41:57;31.42;;;4.38;;
16626;SDS011;8427;52.204;7.202;2023-11-19T13:44:30;27.02;;;3.53;;
16626;SDS011;8427;52.204;7.202;2023-11-19T13:46:58;23.88;;;3.33;;
16626;SDS011;8427;52.204;7.202;2023-11-19T13:49:26;31.27;;;4.20;;
16626;SDS011;8427;52.204;7.202;2023-11-19T13:51:54;25.52;;;3.20;;
16626;SDS011;8427;52.204;7.202;2023-11-19T13:54:22;25.38;;;3.25;;
16626;SDS011;8427;52.204;7.202;2023-11-19T13:56:50;31.35;;;3.95;;
16626;SDS011;8427;52.204;7.202;2023-11-19T13:59:24;25.52;;;3.40;;
16626;SDS011;8427;52.204;7.202;2023-11-19T14:01:54;24.73;;;3.33;;
16626;SDS011;8427;52.204;7.202;2023-11-19T14:04:22;29.77;;;3.40;;
16626;SDS011;8427;52.204;7.202;2023-11-19T14:06:50;23.23;;;3.55;;
16626;SDS011;8427;52.204;7.202;2023-11-19T14:09:18;25.33;;;3.60;;
16626;SDS011;8427;52.204;7.202;2023-11-19T14:11:46;24.02;;;3.20;;
16626;SDS011;8427;52.204;7.202;2023-11-19T14:14:17;18.40;;;2.60;;
16626;SDS011;8427;52.204;7.202;2023-11-19T14:16:45;26.67;;;3.15;;
16626;SDS011;8427;52.204;7.202;2023-11-19T14:19:15;23.38;;;3.33;;
16626;SDS011;8427;52.204;7.202;2023-11-19T14:24:11;23.98;;;2.95;;
16626;SDS011;8427;52.204;7.202;2023-11-19T14:26:39;25.77;;;3.33;;
16626;SDS011;8427;52.204;7.202;2023-11-19T14:29:07;23.38;;;3.00;;
16626;SDS011;8427;52.204;7.202;2023-11-19T14:31:35;21.73;;;2.97;;
16626;SDS011;8427;52.204;7.202;2023-11-19T14:34:03;17.80;;;2.92;;
16626;SDS011;8427;52.204;7.202;2023-11-19T14:36:33;19.70;;;2.88;;
16626;SDS011;8427;52.204;7.202;2023-11-19T14:39:01;17.45;;;2.58;;
16626;SDS011;8427;52.204;7.202;2023-11-19T14:41:30;20.15;;;2.80;;
16626;SDS011;8427;52.204;7.202;2023-11-19T14:43:58;20.90;;;2.95;;
16626;SDS011;8427;52.204;7.202;2023-11-19T14:46:27;23.90;;;2.67;;
16626;SDS011;8427;52.204;7.202;2023-11-19T14:48:55;18.52;;;2.72;;
16626;SDS011;8427;52.204;7.202;2023-11-19T14:51:23;18.77;;;2.80;;
16626;SDS011;8427;52.204;7.202;2023-11-19T14:53:52;20.60;;;3.22;;
16626;SDS011;8427;52.204;7.202;2023-11-19T14:56:22;21.50;;;3.38;;
16626;SDS011;8427;52.204;7.202;2023-11-19T14:58:50;27.33;;;6.60;;
16626;SDS011;8427;52.204;7.202;2023-11-19T15:01:18;27.98;;;5.53;;
16626;SDS011;8427;52.204;7.202;2023-11-19T15:03:46;20.35;;;3.13;;
16626;SDS011;8427;52.204;7.202;2023-11-19T15:06:17;17.63;;;3.50;;
16626;SDS011;8427;52.204;7.202;2023-11-19T15:08:45;21.40;;;3.05;;
16626;SDS011;8427;52.204;7.202;2023-11-19T15:11:14;24.73;;;3.13;;
16626;SDS011;8427;52.204;7.202;2023-11-19T15:16:10;17.13;;;2.40;;
16626;SDS011;8427;52.204;7.202;2023-11-19T15:18:40;13.65;;;2.30;;
16626;SDS011;8427;52.204;7.202;2023-11-19T15:21:08;21.75;;;3.00;;
16626;SDS011;8427;52.204;7.202;2023-11-19T15:23:37;19.35;;;3.13;;
16626;SDS011;8427;52.204;7.202;2023-11-19T15:26:07;20.50;;;3.13;;
16626;SDS011;8427;52.204;7.202;2023-11-19T15:28:38;17.60;;;2.72;;
16626;SDS011;8427;52.204;7.202;2023-11-19T15:31:06;21.27;;;3.08;;
16626;SDS011;8427;52.204;7.202;2023-11-19T15:33:34;22.83;;;3.58;;
16626;SDS011;8427;52.204;7.202;2023-11-19T15:36:02;23.27;;;4.40;;
16626;SDS011;8427;52.204;7.202;2023-11-19T15:38:33;23.92;;;3.55;;